sensor_id;sensor_type;location;lat;lon;timestamp;P1;durP1;ratioP1;P2;durP2;ratioP2
51556;SDS011;38766;53.194;5.532;2022-08-19T00:01:20;8.82;;;7.10;;
51556;SDS011;38766;53.194;5.532;2022-08-19T00:03:46;8.95;;;7.00;;
51556;SDS011;38766;53.194;5.532;2022-08-19T00:06:12;10.45;;;6.90;;
51556;SDS011;38766;53.194;5.532;2022-08-19T00:08:38;8.75;;;6.25;;
51556;SDS011;38766;53.194;5.532;2022-08-19T00:11:03;8.07;;;6.93;;
51556;SDS011;38766;53.194;5.532;2022-08-19T00:13:29;10.07;;;7.13;;
51556;SDS011;38766;53.194;5.532;2022-08-19T00:15:55;9.70;;;7.45;;
51556;SDS011;38766;53.194;5.532;2022-08-19T00:18:23;9.27;;;7.35;;
51556;SDS011;38766;53.194;5.532;2022-08-19T00:20:49;10.02;;;7.38;;
51556;SDS011;38766;53.194;5.532;2022-08-19T00:23:15;10.48;;;7.35;;
51556;SDS011;38766;53.194;5.532;2022-08-19T00:25:40;9.35;;;6.82;;
51556;SDS011;38766;53.194;5.532;2022-08-19T00:28:06;9.68;;;7.05;;
51556;SDS011;38766;53.194;5.532;2022-08-19T00:30:32;11.32;;;7.53;;
51556;SDS011;38766;53.194;5.532;2022-08-19T00:32:58;9.85;;;7.05;;
51556;SDS011;38766;53.194;5.532;2022-08-19T00:35:24;8.10;;;6.80;;
51556;SDS011;38766;53.194;5.532;2022-08-19T00:37:52;9.45;;;6.70;;
51556;SDS011;38766;53.194;5.532;2022-08-19T00:40:18;7.97;;;7.00;;
51556;SDS011;38766;53.194;5.532;2022-08-19T00:42:45;7.93;;;6.93;;
51556;SDS011;38766;53.194;5.532;2022-08-19T00:45:13;10.48;;;6.95;;
51556;SDS011;38766;53.194;5.532;2022-08-19T00:47:42;10.07;;;7.15;;
51556;SDS011;38766;53.194;5.532;2022-08-19T00:50:09;8.57;;;7.20;;
51556;SDS011;38766;53.194;5.532;2022-08-19T00:52:39;10.85;;;7.43;;
51556;SDS011;38766;53.194;5.532;2022-08-19T00:55:11;8.85;;;7.50;;
51556;SDS011;38766;53.194;5.532;2022-08-19T00:57:41;10.32;;;7.25;;
51556;SDS011;38766;53.194;5.532;2022-08-19T01:00:15;11.85;;;7.85;;
51556;SDS011;38766;53.194;5.532;2022-08-19T01:02:42;10.48;;;7.53;;
51556;SDS011;38766;53.194;5.532;2022-08-19T01:05:11;8.73;;;7.30;;
51556;SDS011;38766;53.194;5.532;2022-08-19T01:07:40;9.82;;;7.00;;
51556;SDS011;38766;53.194;5.532;2022-08-19T01:10:08;9.85;;;7.07;;
51556;SDS011;38766;53.194;5.532;2022-08-19T01:12:38;8.93;;;7.20;;
51556;SDS011;38766;53.194;5.532;2022-08-19T01:15:08;10.98;;;7.85;;
51556;SDS011;38766;53.194;5.532;2022-08-19T01:17:36;8.25;;;7.35;;
51556;SDS011;38766;53.194;5.532;2022-08-19T01:20:04;11.20;;;7.35;;
51556;SDS011;38766;53.194;5.532;2022-08-19T01:25:09;11.55;;;8.20;;
51556;SDS011;38766;53.194;5.532;2022-08-19T01:27:39;9.18;;;7.60;;
51556;SDS011;38766;53.194;5.532;2022-08-19T01:30:07;10.10;;;8.10;;
51556;SDS011;38766;53.194;5.532;2022-08-19T01:32:34;10.73;;;8.13;;
51556;SDS011;38766;53.194;5.532;2022-08-19T01:35:03;9.40;;;8.25;;
51556;SDS011;38766;53.194;5.532;2022-08-19T01:37:30;11.55;;;7.70;;
51556;SDS011;38766;53.194;5.532;2022-08-19T01:40:06;13.05;;;8.23;;
51556;SDS011;38766;53.194;5.532;2022-08-19T01:42:33;9.80;;;8.35;;
51556;SDS011;38766;53.194;5.532;2022-08-19T01:45:00;11.98;;;8.45;;
51556;SDS011;38766;53.194;5.532;2022-08-19T01:47:25;10.95;;;8.25;;
51556;SDS011;38766;53.194;5.532;2022-08-19T01:49:51;11.82;;;8.80;;
51556;SDS011;38766;53.194;5.532;2022-08-19T01:52:16;10.40;;;8.63;;
51556;SDS011;38766;53.194;5.532;2022-08-19T01:54:42;15.18;;;8.95;;
51556;SDS011;38766;53.194;5.532;2022-08-19T01:57:09;10.07;;;8.05;;
51556;SDS011;38766;53.194;5.532;2022-08-19T01:59:37;12.88;;;8.73;;
51556;SDS011;38766;53.194;5.532;2022-08-19T02:02:06;11.02;;;8.38;;
51556;SDS011;38766;53.194;5.532;2022-08-19T02:04:35;10.98;;;9.23;;
51556;SDS011;38766;53.194;5.532;2022-08-19T02:07:03;12.98;;;8.57;;
51556;SDS011;38766;53.194;5.532;2022-08-19T02:09:30;10.38;;;8.77;;
51556;SDS011;38766;53.194;5.532;2022-08-19T02:11:56;12.50;;;9.13;;
51556;SDS011;38766;53.194;5.532;2022-08-19T02:14:22;13.57;;;9.48;;
51556;SDS011;38766;53.194;5.532;2022-08-19T02:16:48;11.60;;;8.95;;
51556;SDS011;38766;53.194;5.532;2022-08-19T02:19:13;12.30;;;9.00;;
51556;SDS011;38766;53.194;5.532;2022-08-19T02:21:39;14.35;;;9.98;;
51556;SDS011;38766;53.194;5.532;2022-08-19T02:24:05;12.65;;;8.93;;
51556;SDS011;38766;53.194;5.532;2022-08-19T02:26:31;11.10;;;9.25;;
51556;SDS011;38766;53.194;5.532;2022-08-19T02:28:57;11.65;;;9.48;;
51556;SDS011;38766;53.194;5.532;2022-08-19T02:31:24;11.98;;;9.57;;
51556;SDS011;38766;53.194;5.532;2022-08-19T02:33:50;12.38;;;9.63;;
51556;SDS011;38766;53.194;5.532;2022-08-19T02:36:17;11.32;;;9.20;;
51556;SDS011;38766;53.194;5.532;2022-08-19T02:38:43;13.93;;;9.50;;
51556;SDS011;38766;53.194;5.532;2022-08-19T02:41:16;11.20;;;8.60;;
51556;SDS011;38766;53.194;5.532;2022-08-19T02:43:43;10.30;;;8.88;;
51556;SDS011;38766;53.194;5.532;2022-08-19T02:46:13;11.63;;;9.00;;
51556;SDS011;38766;53.194;5.532;2022-08-19T02:48:49;11.05;;;9.50;;
51556;SDS011;38766;53.194;5.532;2022-08-19T02:51:27;13.15;;;8.98;;
51556;SDS011;38766;53.194;5.532;2022-08-19T02:53:54;11.15;;;8.80;;
51556;SDS011;38766;53.194;5.532;2022-08-19T02:56:20;14.65;;;9.93;;
51556;SDS011;38766;53.194;5.532;2022-08-19T02:58:47;12.43;;;8.82;;
51556;SDS011;38766;53.194;5.532;2022-08-19T03:01:20;13.68;;;8.57;;
51556;SDS011;38766;53.194;5.532;2022-08-19T03:03:50;11.88;;;8.70;;
51556;SDS011;38766;53.194;5.532;2022-08-19T03:06:16;12.25;;;8.93;;
51556;SDS011;38766;53.194;5.532;2022-08-19T03:08:44;11.07;;;8.73;;
51556;SDS011;38766;53.194;5.532;2022-08-19T03:11:22;11.05;;;8.80;;
51556;SDS011;38766;53.194;5.532;2022-08-19T03:13:53;11.85;;;8.80;;
51556;SDS011;38766;53.194;5.532;2022-08-19T03:16:19;12.50;;;9.65;;
51556;SDS011;38766;53.194;5.532;2022-08-19T03:18:46;12.50;;;9.13;;
51556;SDS011;38766;53.194;5.532;2022-08-19T03:21:16;11.73;;;8.90;;
51556;SDS011;38766;53.194;5.532;2022-08-19T03:23:43;13.50;;;8.75;;
51556;SDS011;38766;53.194;5.532;2022-08-19T03:26:10;12.90;;;8.60;;
51556;SDS011;38766;53.194;5.532;2022-08-19T03:28:36;11.65;;;8.20;;
51556;SDS011;38766;53.194;5.532;2022-08-19T03:33:33;14.20;;;9.40;;
51556;SDS011;38766;53.194;5.532;2022-08-19T03:36:04;13.20;;;10.00;;
51556;SDS011;38766;53.194;5.532;2022-08-19T03:38:42;11.95;;;8.90;;
51556;SDS011;38766;53.194;5.532;2022-08-19T03:41:13;10.10;;;8.57;;
51556;SDS011;38766;53.194;5.532;2022-08-19T03:43:41;14.13;;;8.52;;
51556;SDS011;38766;53.194;5.532;2022-08-19T03:46:09;14.57;;;9.32;;
51556;SDS011;38766;53.194;5.532;2022-08-19T03:48:36;12.20;;;9.00;;
51556;SDS011;38766;53.194;5.532;2022-08-19T03:51:04;11.48;;;8.45;;
51556;SDS011;38766;53.194;5.532;2022-08-19T03:53:32;12.02;;;8.80;;
51556;SDS011;38766;53.194;5.532;2022-08-19T03:55:59;13.52;;;9.70;;
51556;SDS011;38766;53.194;5.532;2022-08-19T03:58:25;13.80;;;9.68;;
51556;SDS011;38766;53.194;5.532;2022-08-19T04:00:54;13.77;;;9.75;;
51556;SDS011;38766;53.194;5.532;2022-08-19T04:03:23;13.98;;;9.85;;
51556;SDS011;38766;53.194;5.532;2022-08-19T04:05:49;13.85;;;10.10;;
51556;SDS011;38766;53.194;5.532;2022-08-19T04:08:15;12.60;;;10.55;;
51556;SDS011;38766;53.194;5.532;2022-08-19T04:10:44;16.30;;;11.13;;
51556;SDS011;38766;53.194;5.532;2022-08-19T04:13:09;12.57;;;10.45;;
51556;SDS011;38766;53.194;5.532;2022-08-19T04:15:38;15.75;;;11.27;;
51556;SDS011;38766;53.194;5.532;2022-08-19T04:18:09;14.17;;;10.60;;
51556;SDS011;38766;53.194;5.532;2022-08-19T04:20:39;15.35;;;10.60;;
51556;SDS011;38766;53.194;5.532;2022-08-19T04:23:06;16.33;;;11.27;;
51556;SDS011;38766;53.194;5.532;2022-08-19T04:25:36;13.65;;;10.32;;
51556;SDS011;38766;53.194;5.532;2022-08-19T04:28:02;16.30;;;10.70;;
51556;SDS011;38766;53.194;5.532;2022-08-19T04:30:28;13.35;;;10.35;;
51556;SDS011;38766;53.194;5.532;2022-08-19T04:32:53;13.02;;;10.40;;
51556;SDS011;38766;53.194;5.532;2022-08-19T04:35:19;17.15;;;10.88;;
51556;SDS011;38766;53.194;5.532;2022-08-19T04:37:45;13.48;;;10.45;;
51556;SDS011;38766;53.194;5.532;2022-08-19T04:40:10;15.23;;;10.88;;
51556;SDS011;38766;53.194;5.532;2022-08-19T04:43:09;15.32;;;10.77;;
51556;SDS011;38766;53.194;5.532;2022-08-19T04:45:37;13.13;;;10.63;;
51556;SDS011;38766;53.194;5.532;2022-08-19T04:48:02;14.57;;;11.27;;
51556;SDS011;38766;53.194;5.532;2022-08-19T04:50:28;14.13;;;10.70;;
51556;SDS011;38766;53.194;5.532;2022-08-19T04:52:54;15.20;;;10.45;;
51556;SDS011;38766;53.194;5.532;2022-08-19T04:55:20;16.77;;;11.40;;
51556;SDS011;38766;53.194;5.532;2022-08-19T04:57:46;14.20;;;11.35;;
51556;SDS011;38766;53.194;5.532;2022-08-19T05:00:12;13.93;;;11.32;;
51556;SDS011;38766;53.194;5.532;2022-08-19T05:02:38;15.07;;;11.20;;
51556;SDS011;38766;53.194;5.532;2022-08-19T05:05:04;16.23;;;11.60;;
51556;SDS011;38766;53.194;5.532;2022-08-19T05:07:31;15.02;;;11.18;;
51556;SDS011;38766;53.194;5.532;2022-08-19T05:09:57;16.73;;;11.75;;
51556;SDS011;38766;53.194;5.532;2022-08-19T05:12:23;15.38;;;11.52;;
51556;SDS011;38766;53.194;5.532;2022-08-19T05:14:49;15.18;;;11.90;;
51556;SDS011;38766;53.194;5.532;2022-08-19T05:17:16;15.55;;;11.50;;
51556;SDS011;38766;53.194;5.532;2022-08-19T05:19:42;15.63;;;10.80;;
51556;SDS011;38766;53.194;5.532;2022-08-19T05:22:26;15.32;;;10.68;;
51556;SDS011;38766;53.194;5.532;2022-08-19T05:25:01;16.88;;;11.43;;
51556;SDS011;38766;53.194;5.532;2022-08-19T05:27:32;14.65;;;10.45;;
51556;SDS011;38766;53.194;5.532;2022-08-19T05:29:58;13.50;;;10.88;;
51556;SDS011;38766;53.194;5.532;2022-08-19T05:32:24;16.08;;;10.98;;
51556;SDS011;38766;53.194;5.532;2022-08-19T05:34:52;16.75;;;10.82;;
51556;SDS011;38766;53.194;5.532;2022-08-19T05:37:17;15.48;;;11.18;;
51556;SDS011;38766;53.194;5.532;2022-08-19T05:39:43;16.55;;;10.93;;
51556;SDS011;38766;53.194;5.532;2022-08-19T05:42:10;18.05;;;12.00;;
51556;SDS011;38766;53.194;5.532;2022-08-19T05:44:38;15.90;;;10.93;;
51556;SDS011;38766;53.194;5.532;2022-08-19T05:47:08;15.80;;;11.65;;
51556;SDS011;38766;53.194;5.532;2022-08-19T05:49:35;16.73;;;11.45;;
51556;SDS011;38766;53.194;5.532;2022-08-19T05:52:05;15.10;;;11.73;;
51556;SDS011;38766;53.194;5.532;2022-08-19T05:54:33;15.45;;;12.10;;
51556;SDS011;38766;53.194;5.532;2022-08-19T05:57:00;16.48;;;11.18;;
51556;SDS011;38766;53.194;5.532;2022-08-19T05:59:26;15.15;;;11.50;;
51556;SDS011;38766;53.194;5.532;2022-08-19T06:01:52;15.80;;;11.55;;
51556;SDS011;38766;53.194;5.532;2022-08-19T06:04:22;17.50;;;12.40;;
51556;SDS011;38766;53.194;5.532;2022-08-19T06:06:50;16.73;;;12.93;;
51556;SDS011;38766;53.194;5.532;2022-08-19T06:09:17;17.27;;;13.10;;
51556;SDS011;38766;53.194;5.532;2022-08-19T06:11:47;16.80;;;12.05;;
51556;SDS011;38766;53.194;5.532;2022-08-19T06:14:19;16.58;;;11.65;;
51556;SDS011;38766;53.194;5.532;2022-08-19T06:16:49;15.75;;;12.45;;
51556;SDS011;38766;53.194;5.532;2022-08-19T06:19:17;16.17;;;11.93;;
51556;SDS011;38766;53.194;5.532;2022-08-19T06:21:45;17.95;;;12.25;;
51556;SDS011;38766;53.194;5.532;2022-08-19T06:24:13;19.02;;;12.80;;
51556;SDS011;38766;53.194;5.532;2022-08-19T06:26:43;17.38;;;13.32;;
51556;SDS011;38766;53.194;5.532;2022-08-19T06:29:10;17.13;;;13.18;;
51556;SDS011;38766;53.194;5.532;2022-08-19T06:31:40;19.25;;;13.38;;
51556;SDS011;38766;53.194;5.532;2022-08-19T06:34:08;16.45;;;11.93;;
51556;SDS011;38766;53.194;5.532;2022-08-19T06:36:35;19.85;;;13.95;;
51556;SDS011;38766;53.194;5.532;2022-08-19T06:39:06;15.40;;;12.40;;
51556;SDS011;38766;53.194;5.532;2022-08-19T06:41:37;17.45;;;13.95;;
51556;SDS011;38766;53.194;5.532;2022-08-19T06:44:05;17.38;;;12.77;;
51556;SDS011;38766;53.194;5.532;2022-08-19T06:46:31;16.90;;;12.82;;
51556;SDS011;38766;53.194;5.532;2022-08-19T06:48:57;19.50;;;13.43;;
51556;SDS011;38766;53.194;5.532;2022-08-19T06:51:23;18.08;;;13.55;;
51556;SDS011;38766;53.194;5.532;2022-08-19T06:53:52;17.48;;;14.27;;
51556;SDS011;38766;53.194;5.532;2022-08-19T06:56:20;19.52;;;14.88;;
51556;SDS011;38766;53.194;5.532;2022-08-19T06:58:50;18.98;;;14.32;;
51556;SDS011;38766;53.194;5.532;2022-08-19T07:01:17;17.27;;;14.05;;
51556;SDS011;38766;53.194;5.532;2022-08-19T07:03:44;16.85;;;13.98;;
51556;SDS011;38766;53.194;5.532;2022-08-19T07:06:12;18.08;;;14.48;;
51556;SDS011;38766;53.194;5.532;2022-08-19T07:08:42;18.98;;;15.55;;
51556;SDS011;38766;53.194;5.532;2022-08-19T07:11:10;16.60;;;14.63;;
51556;SDS011;38766;53.194;5.532;2022-08-19T07:13:40;21.67;;;17.02;;
51556;SDS011;38766;53.194;5.532;2022-08-19T07:16:09;18.25;;;16.33;;
51556;SDS011;38766;53.194;5.532;2022-08-19T07:18:37;19.63;;;16.02;;
51556;SDS011;38766;53.194;5.532;2022-08-19T07:21:11;21.60;;;16.98;;
51556;SDS011;38766;53.194;5.532;2022-08-19T07:23:39;24.85;;;17.90;;
51556;SDS011;38766;53.194;5.532;2022-08-19T07:26:06;21.08;;;16.42;;
51556;SDS011;38766;53.194;5.532;2022-08-19T07:28:41;20.17;;;17.45;;
51556;SDS011;38766;53.194;5.532;2022-08-19T07:31:10;24.80;;;18.20;;
51556;SDS011;38766;53.194;5.532;2022-08-19T07:33:37;24.38;;;19.02;;
51556;SDS011;38766;53.194;5.532;2022-08-19T07:36:05;22.30;;;18.13;;
51556;SDS011;38766;53.194;5.532;2022-08-19T07:38:33;26.60;;;19.08;;
51556;SDS011;38766;53.194;5.532;2022-08-19T07:40:59;26.08;;;20.27;;
51556;SDS011;38766;53.194;5.532;2022-08-19T07:43:25;23.30;;;19.60;;
51556;SDS011;38766;53.194;5.532;2022-08-19T07:45:52;25.42;;;20.50;;
51556;SDS011;38766;53.194;5.532;2022-08-19T07:48:21;22.75;;;19.75;;
51556;SDS011;38766;53.194;5.532;2022-08-19T07:50:50;22.38;;;18.38;;
51556;SDS011;38766;53.194;5.532;2022-08-19T07:53:17;23.15;;;19.10;;
51556;SDS011;38766;53.194;5.532;2022-08-19T07:55:43;20.92;;;16.88;;
51556;SDS011;38766;53.194;5.532;2022-08-19T07:58:11;23.17;;;16.38;;
51556;SDS011;38766;53.194;5.532;2022-08-19T08:00:39;19.63;;;15.45;;
51556;SDS011;38766;53.194;5.532;2022-08-19T08:03:06;22.50;;;16.17;;
51556;SDS011;38766;53.194;5.532;2022-08-19T08:05:33;23.60;;;15.60;;
51556;SDS011;38766;53.194;5.532;2022-08-19T08:08:18;21.50;;;16.30;;
51556;SDS011;38766;53.194;5.532;2022-08-19T08:11:03;21.20;;;15.20;;
51556;SDS011;38766;53.194;5.532;2022-08-19T08:13:29;25.05;;;13.95;;
51556;SDS011;38766;53.194;5.532;2022-08-19T08:15:56;17.58;;;13.88;;
51556;SDS011;38766;53.194;5.532;2022-08-19T08:18:22;22.77;;;14.85;;
51556;SDS011;38766;53.194;5.532;2022-08-19T08:20:48;19.48;;;14.02;;
51556;SDS011;38766;53.194;5.532;2022-08-19T08:23:14;16.80;;;12.32;;
51556;SDS011;38766;53.194;5.532;2022-08-19T08:25:50;18.13;;;12.68;;
51556;SDS011;38766;53.194;5.532;2022-08-19T08:28:16;18.40;;;12.52;;
51556;SDS011;38766;53.194;5.532;2022-08-19T08:30:42;20.38;;;12.90;;
51556;SDS011;38766;53.194;5.532;2022-08-19T08:33:10;15.13;;;11.45;;
51556;SDS011;38766;53.194;5.532;2022-08-19T08:35:36;15.23;;;10.32;;
51556;SDS011;38766;53.194;5.532;2022-08-19T08:38:03;15.77;;;11.43;;
51556;SDS011;38766;53.194;5.532;2022-08-19T08:40:38;19.77;;;12.20;;
51556;SDS011;38766;53.194;5.532;2022-08-19T08:43:09;19.40;;;12.68;;
51556;SDS011;38766;53.194;5.532;2022-08-19T08:48:39;17.08;;;11.27;;
51556;SDS011;38766;53.194;5.532;2022-08-19T08:51:44;18.03;;;11.03;;
51556;SDS011;38766;53.194;5.532;2022-08-19T08:54:14;16.90;;;9.43;;
51556;SDS011;38766;53.194;5.532;2022-08-19T08:56:44;15.18;;;9.85;;
51556;SDS011;38766;53.194;5.532;2022-08-19T09:01:44;17.02;;;10.05;;
51556;SDS011;38766;53.194;5.532;2022-08-19T09:04:09;20.13;;;10.55;;
51556;SDS011;38766;53.194;5.532;2022-08-19T09:06:49;14.13;;;9.93;;
51556;SDS011;38766;53.194;5.532;2022-08-19T09:09:18;16.60;;;10.27;;
51556;SDS011;38766;53.194;5.532;2022-08-19T09:17:08;15.52;;;8.82;;
51556;SDS011;38766;53.194;5.532;2022-08-19T09:19:35;11.27;;;7.72;;
51556;SDS011;38766;53.194;5.532;2022-08-19T09:22:13;13.70;;;8.88;;
51556;SDS011;38766;53.194;5.532;2022-08-19T09:24:38;12.55;;;7.72;;
51556;SDS011;38766;53.194;5.532;2022-08-19T09:27:04;13.05;;;8.77;;
51556;SDS011;38766;53.194;5.532;2022-08-19T09:29:30;13.65;;;7.60;;
51556;SDS011;38766;53.194;5.532;2022-08-19T09:31:55;11.73;;;7.70;;
51556;SDS011;38766;53.194;5.532;2022-08-19T09:34:21;13.60;;;8.85;;
51556;SDS011;38766;53.194;5.532;2022-08-19T09:36:47;13.43;;;7.82;;
51556;SDS011;38766;53.194;5.532;2022-08-19T09:39:17;17.48;;;7.55;;
51556;SDS011;38766;53.194;5.532;2022-08-19T09:41:42;10.48;;;7.10;;
51556;SDS011;38766;53.194;5.532;2022-08-19T09:44:08;12.13;;;6.47;;
51556;SDS011;38766;53.194;5.532;2022-08-19T09:46:36;14.95;;;7.97;;
51556;SDS011;38766;53.194;5.532;2022-08-19T09:49:02;11.48;;;8.18;;
51556;SDS011;38766;53.194;5.532;2022-08-19T09:51:30;15.00;;;7.55;;
51556;SDS011;38766;53.194;5.532;2022-08-19T09:53:59;11.88;;;8.15;;
51556;SDS011;38766;53.194;5.532;2022-08-19T09:56:26;11.05;;;8.13;;
51556;SDS011;38766;53.194;5.532;2022-08-19T09:58:52;14.18;;;8.35;;
51556;SDS011;38766;53.194;5.532;2022-08-19T10:01:22;9.18;;;8.18;;
51556;SDS011;38766;53.194;5.532;2022-08-19T10:03:50;10.85;;;8.73;;
51556;SDS011;38766;53.194;5.532;2022-08-19T10:06:18;12.20;;;7.60;;
51556;SDS011;38766;53.194;5.532;2022-08-19T10:08:45;13.90;;;8.18;;
51556;SDS011;38766;53.194;5.532;2022-08-19T10:11:11;9.65;;;7.38;;
51556;SDS011;38766;53.194;5.532;2022-08-19T10:13:39;11.25;;;7.50;;
51556;SDS011;38766;53.194;5.532;2022-08-19T10:16:06;11.40;;;6.90;;
51556;SDS011;38766;53.194;5.532;2022-08-19T10:18:34;8.95;;;7.10;;
51556;SDS011;38766;53.194;5.532;2022-08-19T10:21:05;11.63;;;7.38;;
51556;SDS011;38766;53.194;5.532;2022-08-19T10:23:34;9.97;;;7.13;;
51556;SDS011;38766;53.194;5.532;2022-08-19T10:26:06;9.88;;;6.80;;
51556;SDS011;38766;53.194;5.532;2022-08-19T10:28:33;11.13;;;6.97;;
51556;SDS011;38766;53.194;5.532;2022-08-19T10:31:23;10.27;;;7.00;;
51556;SDS011;38766;53.194;5.532;2022-08-19T10:33:51;10.90;;;7.03;;
51556;SDS011;38766;53.194;5.532;2022-08-19T10:36:23;8.77;;;6.65;;
51556;SDS011;38766;53.194;5.532;2022-08-19T10:38:52;12.73;;;6.75;;
51556;SDS011;38766;53.194;5.532;2022-08-19T10:41:22;10.05;;;7.95;;
51556;SDS011;38766;53.194;5.532;2022-08-19T10:43:53;9.75;;;6.43;;
51556;SDS011;38766;53.194;5.532;2022-08-19T10:46:22;7.80;;;6.22;;
51556;SDS011;38766;53.194;5.532;2022-08-19T10:48:49;9.57;;;6.88;;
51556;SDS011;38766;53.194;5.532;2022-08-19T10:51:15;10.45;;;6.28;;
51556;SDS011;38766;53.194;5.532;2022-08-19T10:53:59;11.07;;;7.03;;
51556;SDS011;38766;53.194;5.532;2022-08-19T10:56:26;13.10;;;9.50;;
51556;SDS011;38766;53.194;5.532;2022-08-19T10:59:11;12.90;;;10.07;;
51556;SDS011;38766;53.194;5.532;2022-08-19T11:01:38;11.00;;;7.82;;
51556;SDS011;38766;53.194;5.532;2022-08-19T11:04:05;10.57;;;7.45;;
51556;SDS011;38766;53.194;5.532;2022-08-19T11:06:35;11.02;;;6.88;;
51556;SDS011;38766;53.194;5.532;2022-08-19T11:09:03;12.95;;;7.38;;
51556;SDS011;38766;53.194;5.532;2022-08-19T11:11:30;11.65;;;8.27;;
51556;SDS011;38766;53.194;5.532;2022-08-19T11:13:57;10.98;;;7.65;;
51556;SDS011;38766;53.194;5.532;2022-08-19T11:16:23;9.73;;;7.07;;
51556;SDS011;38766;53.194;5.532;2022-08-19T11:18:53;10.13;;;7.40;;
51556;SDS011;38766;53.194;5.532;2022-08-19T11:23:50;13.77;;;6.40;;
51556;SDS011;38766;53.194;5.532;2022-08-19T11:26:17;11.10;;;6.60;;
51556;SDS011;38766;53.194;5.532;2022-08-19T11:28:44;9.90;;;7.80;;
51556;SDS011;38766;53.194;5.532;2022-08-19T11:31:14;13.55;;;9.18;;
51556;SDS011;38766;53.194;5.532;2022-08-19T11:33:42;12.20;;;9.10;;
51556;SDS011;38766;53.194;5.532;2022-08-19T11:36:09;13.75;;;9.57;;
51556;SDS011;38766;53.194;5.532;2022-08-19T11:38:35;12.43;;;10.77;;
51556;SDS011;38766;53.194;5.532;2022-08-19T11:41:03;11.52;;;10.32;;
51556;SDS011;38766;53.194;5.532;2022-08-19T11:43:30;13.05;;;9.40;;
51556;SDS011;38766;53.194;5.532;2022-08-19T11:45:56;18.83;;;11.25;;
51556;SDS011;38766;53.194;5.532;2022-08-19T11:48:23;13.65;;;11.52;;
51556;SDS011;38766;53.194;5.532;2022-08-19T11:50:49;13.65;;;11.15;;
51556;SDS011;38766;53.194;5.532;2022-08-19T11:53:16;17.08;;;12.15;;
51556;SDS011;38766;53.194;5.532;2022-08-19T11:55:44;12.70;;;10.30;;
51556;SDS011;38766;53.194;5.532;2022-08-19T11:58:11;13.07;;;10.40;;
51556;SDS011;38766;53.194;5.532;2022-08-19T12:00:38;13.00;;;9.88;;
51556;SDS011;38766;53.194;5.532;2022-08-19T12:03:04;15.13;;;10.63;;
51556;SDS011;38766;53.194;5.532;2022-08-19T12:05:29;13.32;;;11.27;;
51556;SDS011;38766;53.194;5.532;2022-08-19T12:07:55;11.98;;;10.40;;
51556;SDS011;38766;53.194;5.532;2022-08-19T12:10:21;16.20;;;10.88;;
51556;SDS011;38766;53.194;5.532;2022-08-19T12:12:47;13.40;;;10.80;;
51556;SDS011;38766;53.194;5.532;2022-08-19T12:15:13;12.10;;;10.23;;
51556;SDS011;38766;53.194;5.532;2022-08-19T12:17:42;13.85;;;9.88;;
51556;SDS011;38766;53.194;5.532;2022-08-19T12:20:09;13.32;;;9.98;;
51556;SDS011;38766;53.194;5.532;2022-08-19T12:22:36;13.30;;;9.90;;
51556;SDS011;38766;53.194;5.532;2022-08-19T12:25:03;11.40;;;8.65;;
51556;SDS011;38766;53.194;5.532;2022-08-19T12:27:30;10.35;;;8.80;;
51556;SDS011;38766;53.194;5.532;2022-08-19T12:29:56;11.52;;;8.98;;
51556;SDS011;38766;53.194;5.532;2022-08-19T12:32:22;12.40;;;9.50;;
51556;SDS011;38766;53.194;5.532;2022-08-19T12:34:49;10.48;;;7.53;;
51556;SDS011;38766;53.194;5.532;2022-08-19T12:37:15;9.60;;;8.02;;
51556;SDS011;38766;53.194;5.532;2022-08-19T12:39:42;12.82;;;8.55;;
51556;SDS011;38766;53.194;5.532;2022-08-19T12:42:09;13.85;;;10.35;;
51556;SDS011;38766;53.194;5.532;2022-08-19T12:44:36;11.98;;;10.07;;
51556;SDS011;38766;53.194;5.532;2022-08-19T12:47:04;14.05;;;10.60;;
51556;SDS011;38766;53.194;5.532;2022-08-19T12:49:31;13.70;;;10.15;;
51556;SDS011;38766;53.194;5.532;2022-08-19T12:51:59;14.80;;;10.68;;
51556;SDS011;38766;53.194;5.532;2022-08-19T12:54:27;14.35;;;10.38;;
51556;SDS011;38766;53.194;5.532;2022-08-19T12:56:54;12.93;;;9.82;;
51556;SDS011;38766;53.194;5.532;2022-08-19T12:59:20;13.10;;;9.68;;
51556;SDS011;38766;53.194;5.532;2022-08-19T13:01:46;11.20;;;8.52;;
51556;SDS011;38766;53.194;5.532;2022-08-19T13:04:11;12.75;;;9.50;;
51556;SDS011;38766;53.194;5.532;2022-08-19T13:06:37;10.60;;;8.00;;
51556;SDS011;38766;53.194;5.532;2022-08-19T13:09:03;8.90;;;7.40;;
51556;SDS011;38766;53.194;5.532;2022-08-19T13:11:30;9.85;;;7.78;;
51556;SDS011;38766;53.194;5.532;2022-08-19T13:14:00;13.63;;;8.63;;
51556;SDS011;38766;53.194;5.532;2022-08-19T13:16:26;13.38;;;9.35;;
51556;SDS011;38766;53.194;5.532;2022-08-19T13:18:53;10.25;;;8.75;;
51556;SDS011;38766;53.194;5.532;2022-08-19T13:21:21;13.32;;;9.25;;
51556;SDS011;38766;53.194;5.532;2022-08-19T13:23:49;10.90;;;9.35;;
51556;SDS011;38766;53.194;5.532;2022-08-19T13:26:16;12.82;;;8.88;;
51556;SDS011;38766;53.194;5.532;2022-08-19T13:28:42;13.05;;;9.30;;
51556;SDS011;38766;53.194;5.532;2022-08-19T13:31:29;10.93;;;7.65;;
51556;SDS011;38766;53.194;5.532;2022-08-19T13:34:15;10.20;;;6.72;;
51556;SDS011;38766;53.194;5.532;2022-08-19T13:36:42;9.95;;;7.28;;
51556;SDS011;38766;53.194;5.532;2022-08-19T13:39:07;8.20;;;6.18;;
51556;SDS011;38766;53.194;5.532;2022-08-19T13:41:34;9.60;;;6.78;;
51556;SDS011;38766;53.194;5.532;2022-08-19T13:44:01;10.70;;;7.50;;
51556;SDS011;38766;53.194;5.532;2022-08-19T13:46:27;10.35;;;7.70;;
51556;SDS011;38766;53.194;5.532;2022-08-19T13:48:54;10.38;;;7.85;;
51556;SDS011;38766;53.194;5.532;2022-08-19T13:51:20;9.80;;;6.97;;
51556;SDS011;38766;53.194;5.532;2022-08-19T13:53:45;9.98;;;7.18;;
51556;SDS011;38766;53.194;5.532;2022-08-19T13:56:13;10.52;;;7.72;;
51556;SDS011;38766;53.194;5.532;2022-08-19T13:58:40;13.10;;;8.55;;
51556;SDS011;38766;53.194;5.532;2022-08-19T14:01:06;11.07;;;7.75;;
51556;SDS011;38766;53.194;5.532;2022-08-19T14:03:33;9.85;;;7.53;;
51556;SDS011;38766;53.194;5.532;2022-08-19T14:05:58;10.02;;;8.18;;
51556;SDS011;38766;53.194;5.532;2022-08-19T14:08:24;11.00;;;7.97;;
51556;SDS011;38766;53.194;5.532;2022-08-19T14:10:52;11.65;;;8.85;;
51556;SDS011;38766;53.194;5.532;2022-08-19T14:13:19;10.13;;;7.10;;
51556;SDS011;38766;53.194;5.532;2022-08-19T14:15:46;10.48;;;6.55;;
51556;SDS011;38766;53.194;5.532;2022-08-19T14:18:12;8.40;;;6.93;;
51556;SDS011;38766;53.194;5.532;2022-08-19T14:20:39;9.95;;;7.22;;
51556;SDS011;38766;53.194;5.532;2022-08-19T14:23:05;10.95;;;8.45;;
51556;SDS011;38766;53.194;5.532;2022-08-19T14:25:30;8.82;;;7.20;;
51556;SDS011;38766;53.194;5.532;2022-08-19T14:27:57;10.35;;;6.55;;
51556;SDS011;38766;53.194;5.532;2022-08-19T14:30:24;8.77;;;6.22;;
51556;SDS011;38766;53.194;5.532;2022-08-19T14:32:56;9.20;;;5.82;;
51556;SDS011;38766;53.194;5.532;2022-08-19T14:35:24;7.65;;;6.28;;
51556;SDS011;38766;53.194;5.532;2022-08-19T14:37:53;9.32;;;6.88;;
51556;SDS011;38766;53.194;5.532;2022-08-19T14:40:20;5.75;;;4.18;;
51556;SDS011;38766;53.194;5.532;2022-08-19T14:42:51;6.72;;;4.38;;
51556;SDS011;38766;53.194;5.532;2022-08-19T14:45:17;8.38;;;3.97;;
51556;SDS011;38766;53.194;5.532;2022-08-19T14:47:43;7.13;;;4.72;;
51556;SDS011;38766;53.194;5.532;2022-08-19T14:50:09;7.90;;;5.78;;
51556;SDS011;38766;53.194;5.532;2022-08-19T14:52:36;7.60;;;5.72;;
51556;SDS011;38766;53.194;5.532;2022-08-19T14:55:02;6.45;;;5.40;;